sensor_id;sensor_type;location;lat;lon;timestamp;pressure;altitude;pressure_sealevel;temperature;humidity
16738;BME280;17906;47.684;10.806;2023-03-17T00:00:11;93067.22;;;-3.81;94.36
16738;BME280;17906;47.684;10.806;2023-03-17T00:02:38;93061.72;;;-3.71;93.24
16738;BME280;17906;47.684;10.806;2023-03-17T00:05:14;93061.41;;;-3.85;93.02
16738;BME280;17906;47.684;10.806;2023-03-17T00:07:43;93065.53;;;-4.07;97.03
16738;BME280;17906;47.684;10.806;2023-03-17T00:10:13;93059.06;;;-4.04;96.77
16738;BME280;17906;47.684;10.806;2023-03-17T00:12:41;93056.78;;;-3.91;94.90
16738;BME280;17906;47.684;10.806;2023-03-17T00:15:09;93045.03;;;-4.05;94.81
16738;BME280;17906;47.684;10.806;2023-03-17T00:17:36;93050.00;;;-4.10;96.48
16738;BME280;17906;47.684;10.806;2023-03-17T00:20:04;93040.22;;;-4.09;98.30
16738;BME280;17906;47.684;10.806;2023-03-17T00:22:30;93043.53;;;-3.99;97.96
16738;BME280;17906;47.684;10.806;2023-03-17T00:24:59;93045.03;;;-4.05;97.73
16738;BME280;17906;47.684;10.806;2023-03-17T00:27:25;93037.44;;;-3.99;95.96
16738;BME280;17906;47.684;10.806;2023-03-17T00:29:52;93039.59;;;-4.03;96.37
16738;BME280;17906;47.684;10.806;2023-03-17T00:32:19;93040.06;;;-3.99;96.13
16738;BME280;17906;47.684;10.806;2023-03-17T00:34:46;93039.59;;;-4.03;94.50
16738;BME280;17906;47.684;10.806;2023-03-17T00:37:13;93048.31;;;-3.94;95.23
16738;BME280;17906;47.684;10.806;2023-03-17T00:39:39;93050.66;;;-3.99;94.41
16738;BME280;17906;47.684;10.806;2023-03-17T00:42:08;93050.66;;;-3.99;95.25
16738;BME280;17906;47.684;10.806;2023-03-17T00:44:35;93048.00;;;-3.99;94.72
16738;BME280;17906;47.684;10.806;2023-03-17T00:47:02;93053.63;;;-4.11;94.61
16738;BME280;17906;47.684;10.806;2023-03-17T00:49:29;93059.25;;;-4.06;95.56
16738;BME280;17906;47.684;10.806;2023-03-17T00:51:56;93052.63;;;-4.26;98.49
16738;BME280;17906;47.684;10.806;2023-03-17T00:54:24;93048.97;;;-4.41;98.10
16738;BME280;17906;47.684;10.806;2023-03-17T00:56:51;93046.31;;;-4.49;98.57
16738;BME280;17906;47.684;10.806;2023-03-17T00:59:23;93045.34;;;-4.40;96.71
16738;BME280;17906;47.684;10.806;2023-03-17T01:01:52;93047.66;;;-4.45;96.09
16738;BME280;17906;47.684;10.806;2023-03-17T01:04:18;93041.69;;;-4.47;94.95
16738;BME280;17906;47.684;10.806;2023-03-17T01:06:45;93041.03;;;-4.41;96.58
16738;BME280;17906;47.684;10.806;2023-03-17T01:09:13;93035.56;;;-4.40;95.14
16738;BME280;17906;47.684;10.806;2023-03-17T01:11:41;93041.69;;;-4.47;96.28
16738;BME280;17906;47.684;10.806;2023-03-17T01:14:08;93024.84;;;-4.46;96.17
16738;BME280;17906;47.684;10.806;2023-03-17T01:16:38;93032.78;;;-4.46;97.46
16738;BME280;17906;47.684;10.806;2023-03-17T01:19:05;93022.69;;;-4.43;96.35
16738;BME280;17906;47.684;10.806;2023-03-17T01:21:31;93018.88;;;-4.40;96.16
16738;BME280;17906;47.684;10.806;2023-03-17T01:23:58;93008.13;;;-4.39;97.50
16738;BME280;17906;47.684;10.806;2023-03-17T01:26:25;93005.31;;;-4.37;97.00
16738;BME280;17906;47.684;10.806;2023-03-17T01:28:52;93002.38;;;-4.34;96.64
16738;BME280;17906;47.684;10.806;2023-03-17T01:31:19;92996.72;;;-4.39;96.36
16738;BME280;17906;47.684;10.806;2023-03-17T01:33:48;92997.41;;;-4.45;98.34
16738;BME280;17906;47.684;10.806;2023-03-17T01:36:15;92987.97;;;-4.40;96.85
16738;BME280;17906;47.684;10.806;2023-03-17T01:38:42;92990.13;;;-4.43;97.31
16738;BME280;17906;47.684;10.806;2023-03-17T01:41:08;92987.31;;;-4.42;98.02
16738;BME280;17906;47.684;10.806;2023-03-17T01:43:37;92989.28;;;-4.44;97.01
16738;BME280;17906;47.684;10.806;2023-03-17T01:46:18;92984.84;;;-4.35;96.94
16738;BME280;17906;47.684;10.806;2023-03-17T01:48:51;92983.03;;;-4.35;96.56
16738;BME280;17906;47.684;10.806;2023-03-17T01:51:22;92989.09;;;-4.58;95.13
16738;BME280;17906;47.684;10.806;2023-03-17T01:53:52;92978.69;;;-4.60;95.54
16738;BME280;17906;47.684;10.806;2023-03-17T01:56:20;92993.91;;;-4.62;96.14
16738;BME280;17906;47.684;10.806;2023-03-17T01:58:49;92986.75;;;-4.86;98.60
16738;BME280;17906;47.684;10.806;2023-03-17T02:01:17;92983.81;;;-4.75;98.42
16738;BME280;17906;47.684;10.806;2023-03-17T02:03:47;92979.69;;;-4.77;99.42
16738;BME280;17906;47.684;10.806;2023-03-17T02:06:15;92972.41;;;-4.75;99.73
16738;BME280;17906;47.684;10.806;2023-03-17T02:08:41;92968.13;;;-4.68;99.45
16738;BME280;17906;47.684;10.806;2023-03-17T02:11:08;92974.91;;;-4.66;97.25
16738;BME280;17906;47.684;10.806;2023-03-17T02:13:35;92963.16;;;-4.71;98.63
16738;BME280;17906;47.684;10.806;2023-03-17T02:16:03;92941.00;;;-4.62;99.35
16738;BME280;17906;47.684;10.806;2023-03-17T02:18:30;92944.31;;;-4.76;100.00
16738;BME280;17906;47.684;10.806;2023-03-17T02:23:59;92935.72;;;-4.62;99.53
16738;BME280;17906;47.684;10.806;2023-03-17T02:26:30;92926.31;;;-4.65;99.01
16738;BME280;17906;47.684;10.806;2023-03-17T02:28:58;92917.22;;;-4.54;99.42
16738;BME280;17906;47.684;10.806;2023-03-17T02:31:25;92912.59;;;-4.44;99.07
16738;BME280;17906;47.684;10.806;2023-03-17T02:33:53;92920.53;;;-4.44;98.46
16738;BME280;17906;47.684;10.806;2023-03-17T02:36:20;92904.47;;;-4.42;97.61
16738;BME280;17906;47.684;10.806;2023-03-17T02:38:47;92922.34;;;-4.36;97.18
16738;BME280;17906;47.684;10.806;2023-03-17T02:41:15;92924.00;;;-4.35;97.60
16738;BME280;17906;47.684;10.806;2023-03-17T02:43:42;92925.31;;;-4.39;96.96
16738;BME280;17906;47.684;10.806;2023-03-17T02:46:08;92935.88;;;-4.39;96.66
16738;BME280;17906;47.684;10.806;2023-03-17T02:48:35;92926.94;;;-4.38;97.57
16738;BME280;17906;47.684;10.806;2023-03-17T02:51:03;92943.00;;;-4.31;98.53
16738;BME280;17906;47.684;10.806;2023-03-17T02:53:30;92939.69;;;-4.25;98.00
16738;BME280;17906;47.684;10.806;2023-03-17T02:55:56;92935.88;;;-4.23;98.53
16738;BME280;17906;47.684;10.806;2023-03-17T02:58:25;92934.53;;;-4.27;96.26
16738;BME280;17906;47.684;10.806;2023-03-17T03:00:51;92931.59;;;-4.40;95.96
16738;BME280;17906;47.684;10.806;2023-03-17T03:03:18;92942.19;;;-4.56;96.55
16738;BME280;17906;47.684;10.806;2023-03-17T03:05:45;92926.97;;;-4.63;98.36
16738;BME280;17906;47.684;10.806;2023-03-17T03:08:12;92929.13;;;-4.58;98.50
16738;BME280;17906;47.684;10.806;2023-03-17T03:10:39;92935.91;;;-4.55;97.17
16738;BME280;17906;47.684;10.806;2023-03-17T03:13:06;92924.16;;;-4.53;97.47
16738;BME280;17906;47.684;10.806;2023-03-17T03:15:34;92930.59;;;-4.47;97.28
16738;BME280;17906;47.684;10.806;2023-03-17T03:18:01;92916.38;;;-4.38;96.88
16738;BME280;17906;47.684;10.806;2023-03-17T03:20:28;92913.72;;;-4.38;96.48
16738;BME280;17906;47.684;10.806;2023-03-17T03:22:54;92918.53;;;-4.33;97.44
16738;BME280;17906;47.684;10.806;2023-03-17T03:25:21;92921.66;;;-4.30;97.67
16738;BME280;17906;47.684;10.806;2023-03-17T03:27:48;92923.47;;;-4.22;96.44
16738;BME280;17906;47.684;10.806;2023-03-17T03:30:15;92912.91;;;-4.22;96.85
16738;BME280;17906;47.684;10.806;2023-03-17T03:32:43;92900.78;;;-4.17;97.77
16738;BME280;17906;47.684;10.806;2023-03-17T03:35:09;92894.84;;;-4.19;97.62
16738;BME280;17906;47.684;10.806;2023-03-17T03:37:36;92897.84;;;-4.14;98.46
16738;BME280;17906;47.684;10.806;2023-03-17T03:40:03;92898.31;;;-4.26;100.00
16738;BME280;17906;47.684;10.806;2023-03-17T03:42:31;92898.50;;;-4.20;99.90
16738;BME280;17906;47.684;10.806;2023-03-17T03:44:58;92890.91;;;-4.23;100.00
16738;BME280;17906;47.684;10.806;2023-03-17T03:47:24;92907.41;;;-4.13;99.56
16738;BME280;17906;47.684;10.806;2023-03-17T03:49:52;92894.66;;;-4.09;98.68
16738;BME280;17906;47.684;10.806;2023-03-17T03:52:19;92898.63;;;-4.05;97.80
16738;BME280;17906;47.684;10.806;2023-03-17T03:54:45;92894.66;;;-4.09;98.14
16738;BME280;17906;47.684;10.806;2023-03-17T03:57:12;92895.16;;;-4.06;98.21
16738;BME280;17906;47.684;10.806;2023-03-17T03:59:39;92890.53;;;-4.03;97.71
16738;BME280;17906;47.684;10.806;2023-03-17T04:02:05;92905.41;;;-4.02;97.70
16738;BME280;17906;47.684;10.806;2023-03-17T04:04:32;92906.59;;;-4.29;100.00
16738;BME280;17906;47.684;10.806;2023-03-17T04:07:00;92914.38;;;-4.28;100.00
16738;BME280;17906;47.684;10.806;2023-03-17T04:09:27;92909.06;;;-4.20;98.79
16738;BME280;17906;47.684;10.806;2023-03-17T04:11:54;92911.72;;;-4.20;100.00
16738;BME280;17906;47.684;10.806;2023-03-17T04:14:20;92906.75;;;-4.15;99.99
16738;BME280;17906;47.684;10.806;2023-03-17T04:16:46;92904.44;;;-4.10;100.00
16738;BME280;17906;47.684;10.806;2023-03-17T04:19:13;92910.72;;;-4.11;99.91
16738;BME280;17906;47.684;10.806;2023-03-17T04:21:40;92900.06;;;-3.94;99.89
16738;BME280;17906;47.684;10.806;2023-03-17T04:24:08;92901.91;;;-3.95;99.59
16738;BME280;17906;47.684;10.806;2023-03-17T04:26:35;92896.31;;;-4.00;99.88
16738;BME280;17906;47.684;10.806;2023-03-17T04:29:02;92908.56;;;-4.07;99.73
16738;BME280;17906;47.684;10.806;2023-03-17T04:31:28;92901.25;;;-4.05;98.26
16738;BME280;17906;47.684;10.806;2023-03-17T04:33:55;92903.41;;;-4.00;99.15
16738;BME280;17906;47.684;10.806;2023-03-17T04:36:22;92895.16;;;-4.06;98.33
16738;BME280;17906;47.684;10.806;2023-03-17T04:38:49;92896.78;;;-4.05;98.13
16738;BME280;17906;47.684;10.806;2023-03-17T04:41:17;92893.84;;;-4.10;98.95
16738;BME280;17906;47.684;10.806;2023-03-17T04:43:45;92902.59;;;-4.09;98.16
16738;BME280;17906;47.684;10.806;2023-03-17T04:46:12;92908.91;;;-4.10;98.45
16738;BME280;17906;47.684;10.806;2023-03-17T04:48:39;92900.44;;;-4.06;98.49
16738;BME280;17906;47.684;10.806;2023-03-17T04:51:05;92901.78;;;-4.10;99.14
16738;BME280;17906;47.684;10.806;2023-03-17T04:53:32;92895.00;;;-4.12;100.00
16738;BME280;17906;47.684;10.806;2023-03-17T04:55:59;92900.31;;;-4.12;100.00
16738;BME280;17906;47.684;10.806;2023-03-17T04:58:27;92898.50;;;-4.28;99.89
16738;BME280;17906;47.684;10.806;2023-03-17T05:00:54;92899.19;;;-4.34;100.00
16738;BME280;17906;47.684;10.806;2023-03-17T05:03:20;92898.31;;;-4.26;100.00
16738;BME280;17906;47.684;10.806;2023-03-17T05:05:47;92902.97;;;-4.20;100.00
16738;BME280;17906;47.684;10.806;2023-03-17T05:08:14;92893.19;;;-4.12;100.00
16738;BME280;17906;47.684;10.806;2023-03-17T05:10:41;92898.16;;;-4.17;100.00
16738;BME280;17906;47.684;10.806;2023-03-17T05:13:08;92901.31;;;-4.13;99.97
16738;BME280;17906;47.684;10.806;2023-03-17T05:15:36;92901.13;;;-4.20;98.27
16738;BME280;17906;47.684;10.806;2023-03-17T05:18:02;92901.16;;;-4.28;98.59
16738;BME280;17906;47.684;10.806;2023-03-17T05:20:29;92900.31;;;-4.20;98.28
16738;BME280;17906;47.684;10.806;2023-03-17T05:22:55;92899.50;;;-4.21;98.77
16738;BME280;17906;47.684;10.806;2023-03-17T05:25:22;92899.78;;;-4.16;100.00
16738;BME280;17906;47.684;10.806;2023-03-17T05:27:49;92898.97;;;-4.16;99.04
16738;BME280;17906;47.684;10.806;2023-03-17T05:30:16;92902.78;;;-4.11;98.48
16738;BME280;17906;47.684;10.806;2023-03-17T05:32:44;92900.63;;;-4.15;100.00
16738;BME280;17906;47.684;10.806;2023-03-17T05:35:11;92902.13;;;-4.21;99.59
16738;BME280;17906;47.684;10.806;2023-03-17T05:37:37;92901.16;;;-4.28;100.00
16738;BME280;17906;47.684;10.806;2023-03-17T05:40:04;92897.53;;;-4.35;100.00
16738;BME280;17906;47.684;10.806;2023-03-17T05:42:31;92892.38;;;-4.20;100.00
16738;BME280;17906;47.684;10.806;2023-03-17T05:44:57;92891.19;;;-4.01;99.40
16738;BME280;17906;47.684;10.806;2023-03-17T05:47:24;92891.53;;;-4.13;100.00
16738;BME280;17906;47.684;10.806;2023-03-17T05:49:52;92889.53;;;-4.11;100.00
16738;BME280;17906;47.684;10.806;2023-03-17T05:52:18;92882.28;;;-4.17;100.00
16738;BME280;17906;47.684;10.806;2023-03-17T05:54:45;92892.19;;;-4.02;100.00
16738;BME280;17906;47.684;10.806;2023-03-17T05:57:13;92885.84;;;-3.93;100.00
16738;BME280;17906;47.684;10.806;2023-03-17T05:59:40;92882.19;;;-3.84;99.98
16738;BME280;17906;47.684;10.806;2023-03-17T06:02:07;92877.19;;;-3.71;100.00
16738;BME280;17906;47.684;10.806;2023-03-17T06:04:34;92878.78;;;-3.62;98.75
16738;BME280;17906;47.684;10.806;2023-03-17T06:07:02;92881.38;;;-3.45;99.58
16738;BME280;17906;47.684;10.806;2023-03-17T06:09:29;92874.00;;;-3.27;99.69
16738;BME280;17906;47.684;10.806;2023-03-17T06:11:56;92881.38;;;-3.14;97.26
16738;BME280;17906;47.684;10.806;2023-03-17T06:14:23;92886.97;;;-3.09;96.76
16738;BME280;17906;47.684;10.806;2023-03-17T06:16:49;92878.72;;;-3.14;97.02
16738;BME280;17906;47.684;10.806;2023-03-17T06:19:16;92879.16;;;-3.03;96.44
16738;BME280;17906;47.684;10.806;2023-03-17T06:21:42;92885.69;;;-2.91;96.17
16738;BME280;17906;47.684;10.806;2023-03-17T06:24:10;92877.97;;;-2.77;95.53
16738;BME280;17906;47.684;10.806;2023-03-17T06:26:37;92877.59;;;-2.74;96.07
16738;BME280;17906;47.684;10.806;2023-03-17T06:29:04;92872.00;;;-2.79;97.10
16738;BME280;17906;47.684;10.806;2023-03-17T06:31:33;92874.63;;;-2.71;97.02
16738;BME280;17906;47.684;10.806;2023-03-17T06:33:59;92888.75;;;-2.79;98.13
16738;BME280;17906;47.684;10.806;2023-03-17T06:36:26;92870.78;;;-2.69;97.14
16738;BME280;17906;47.684;10.806;2023-03-17T06:38:53;92883.06;;;-2.53;96.70
16738;BME280;17906;47.684;10.806;2023-03-17T06:41:20;92888.03;;;-2.50;95.61
16738;BME280;17906;47.684;10.806;2023-03-17T06:43:47;92885.59;;;-2.37;95.42
16738;BME280;17906;47.684;10.806;2023-03-17T06:46:14;92887.69;;;-2.32;94.90
16738;BME280;17906;47.684;10.806;2023-03-17T06:48:40;92889.47;;;-2.24;94.54
16738;BME280;17906;47.684;10.806;2023-03-17T06:51:07;92891.56;;;-2.20;94.80
16738;BME280;17906;47.684;10.806;2023-03-17T06:53:34;92895.09;;;-2.05;93.77
16738;BME280;17906;47.684;10.806;2023-03-17T06:56:01;92898.69;;;-1.83;94.44
16738;BME280;17906;47.684;10.806;2023-03-17T06:58:30;92899.50;;;-1.67;92.16
16738;BME280;17906;47.684;10.806;2023-03-17T07:00:57;92911.66;;;-0.99;89.78
16738;BME280;17906;47.684;10.806;2023-03-17T07:03:25;92903.03;;;-0.44;86.86
16738;BME280;17906;47.684;10.806;2023-03-17T07:05:52;92899.34;;;0.07;83.75
16738;BME280;17906;47.684;10.806;2023-03-17T07:08:19;92896.63;;;0.63;81.58
16738;BME280;17906;47.684;10.806;2023-03-17T07:10:46;92908.38;;;1.09;80.65
16738;BME280;17906;47.684;10.806;2023-03-17T07:13:13;92908.97;;;1.92;77.11
16738;BME280;17906;47.684;10.806;2023-03-17T07:15:43;59087.34;;;-146.04;100.00
16738;BME280;17906;47.684;10.806;2023-03-17T07:18:09;59087.34;;;-146.04;100.00
16738;BME280;17906;47.684;10.806;2023-03-17T07:20:36;59087.34;;;-146.04;100.00
16738;BME280;17906;47.684;10.806;2023-03-17T07:23:03;59087.34;;;-146.04;100.00
16738;BME280;17906;47.684;10.806;2023-03-17T07:25:29;59087.34;;;-146.04;100.00
16738;BME280;17906;47.684;10.806;2023-03-17T07:27:56;59087.34;;;-146.04;100.00
16738;BME280;17906;47.684;10.806;2023-03-17T07:30:22;59087.34;;;-146.04;100.00
16738;BME280;17906;47.684;10.806;2023-03-17T07:32:50;59087.34;;;-146.04;100.00
16738;BME280;17906;47.684;10.806;2023-03-17T07:35:17;59087.34;;;-146.04;100.00
16738;BME280;17906;47.684;10.806;2023-03-17T07:37:43;59087.34;;;-146.04;100.00
16738;BME280;17906;47.684;10.806;2023-03-17T07:40:11;59087.34;;;-146.04;100.00
16738;BME280;17906;47.684;10.806;2023-03-17T07:42:37;59087.34;;;-146.04;100.00
16738;BME280;17906;47.684;10.806;2023-03-17T07:45:05;59087.34;;;-146.04;100.00
16738;BME280;17906;47.684;10.806;2023-03-17T07:47:32;59087.34;;;-146.04;100.00
16738;BME280;17906;47.684;10.806;2023-03-17T07:50:00;59087.34;;;-146.04;100.00
16738;BME280;17906;47.684;10.806;2023-03-17T07:52:26;59087.34;;;-146.04;100.00
16738;BME280;17906;47.684;10.806;2023-03-17T07:54:53;59087.34;;;-146.04;100.00
16738;BME280;17906;47.684;10.806;2023-03-17T07:57:20;59087.34;;;-146.04;100.00
16738;BME280;17906;47.684;10.806;2023-03-17T07:59:46;92869.72;;;11.28;47.40
16738;BME280;17906;47.684;10.806;2023-03-17T08:02:14;92869.47;;;11.35;46.83
16738;BME280;17906;47.684;10.806;2023-03-17T08:04:41;92862.19;;;12.03;46.26
16738;BME280;17906;47.684;10.806;2023-03-17T08:07:09;92856.38;;;12.47;44.57
16738;BME280;17906;47.684;10.806;2023-03-17T08:09:37;92853.41;;;12.79;43.82
16738;BME280;17906;47.684;10.806;2023-03-17T08:12:04;92853.66;;;13.18;42.81
16738;BME280;17906;47.684;10.806;2023-03-17T08:14:31;92841.31;;;13.72;40.51
16738;BME280;17906;47.684;10.806;2023-03-17T08:16:58;92843.47;;;13.75;39.87
16738;BME280;17906;47.684;10.806;2023-03-17T08:19:24;92836.06;;;14.50;36.88
16738;BME280;17906;47.684;10.806;2023-03-17T08:21:51;92837.13;;;14.93;35.69
16738;BME280;17906;47.684;10.806;2023-03-17T08:24:19;59087.34;;;-146.04;100.00
16738;BME280;17906;47.684;10.806;2023-03-17T08:26:46;59087.34;;;-146.04;100.00
16738;BME280;17906;47.684;10.806;2023-03-17T08:29:13;59087.34;;;-146.04;100.00
16738;BME280;17906;47.684;10.806;2023-03-17T08:31:40;92822.53;;;16.75;30.84
16738;BME280;17906;47.684;10.806;2023-03-17T08:34:07;92829.06;;;16.61;29.80
16738;BME280;17906;47.684;10.806;2023-03-17T08:36:34;92831.94;;;16.88;32.57
16738;BME280;17906;47.684;10.806;2023-03-17T08:39:01;92827.38;;;17.16;32.52
16738;BME280;17906;47.684;10.806;2023-03-17T08:41:30;92821.38;;;17.33;32.90
16738;BME280;17906;47.684;10.806;2023-03-17T08:43:57;92814.38;;;17.27;31.67
16738;BME280;17906;47.684;10.806;2023-03-17T08:46:26;92813.91;;;17.01;30.67
16738;BME280;17906;47.684;10.806;2023-03-17T08:48:54;92811.28;;;17.47;30.81
16738;BME280;17906;47.684;10.806;2023-03-17T08:51:21;92807.09;;;17.17;30.11
16738;BME280;17906;47.684;10.806;2023-03-17T08:53:49;92807.66;;;17.33;31.07
16738;BME280;17906;47.684;10.806;2023-03-17T08:56:16;92822.19;;;17.33;30.32
16738;BME280;17906;47.684;10.806;2023-03-17T08:58:44;92822.00;;;18.04;29.32
16738;BME280;17906;47.684;10.806;2023-03-17T09:01:12;92821.81;;;18.28;29.17
16738;BME280;17906;47.684;10.806;2023-03-17T09:03:39;92817.50;;;18.08;28.41
16738;BME280;17906;47.684;10.806;2023-03-17T09:06:07;92815.88;;;18.07;27.97
16738;BME280;17906;47.684;10.806;2023-03-17T09:08:36;92812.63;;;18.05;27.79
16738;BME280;17906;47.684;10.806;2023-03-17T09:11:04;92807.34;;;17.81;28.63
16738;BME280;17906;47.684;10.806;2023-03-17T09:13:31;92812.84;;;18.08;27.49
16738;BME280;17906;47.684;10.806;2023-03-17T09:15:59;92811.34;;;18.16;27.95
16738;BME280;17906;47.684;10.806;2023-03-17T09:18:26;92816.13;;;18.74;27.86
16738;BME280;17906;47.684;10.806;2023-03-17T09:20:55;92818.13;;;18.46;28.81
16738;BME280;17906;47.684;10.806;2023-03-17T09:23:22;92809.91;;;18.82;27.85
16738;BME280;17906;47.684;10.806;2023-03-17T09:25:48;92818.88;;;18.74;27.43
16738;BME280;17906;47.684;10.806;2023-03-17T09:28:15;92813.44;;;19.19;26.64
16738;BME280;17906;47.684;10.806;2023-03-17T09:30:42;92813.03;;;19.25;26.41
16738;BME280;17906;47.684;10.806;2023-03-17T09:33:10;92812.22;;;18.89;26.43
16738;BME280;17906;47.684;10.806;2023-03-17T09:35:38;92807.97;;;18.82;26.26
16738;BME280;17906;47.684;10.806;2023-03-17T09:38:05;92807.53;;;17.98;27.20
16738;BME280;17906;47.684;10.806;2023-03-17T09:40:35;92799.06;;;18.13;28.75
16738;BME280;17906;47.684;10.806;2023-03-17T09:43:08;92803.72;;;18.27;27.24
16738;BME280;17906;47.684;10.806;2023-03-17T09:45:39;92806.16;;;18.28;27.52
16738;BME280;17906;47.684;10.806;2023-03-17T09:48:29;92813.47;;;18.19;26.96
16738;BME280;17906;47.684;10.806;2023-03-17T09:51:01;92809.22;;;18.27;26.32
16738;BME280;17906;47.684;10.806;2023-03-17T09:53:32;92806.94;;;18.56;26.39
16738;BME280;17906;47.684;10.806;2023-03-17T09:56:04;92808.91;;;18.78;25.46
16738;BME280;17906;47.684;10.806;2023-03-17T09:58:33;92803.59;;;18.32;26.57
16738;BME280;17906;47.684;10.806;2023-03-17T10:01:01;92798.88;;;18.96;26.47
16738;BME280;17906;47.684;10.806;2023-03-17T10:03:30;92792.34;;;18.69;27.27
16738;BME280;17906;47.684;10.806;2023-03-17T10:06:12;92792.22;;;18.38;27.37
16738;BME280;17906;47.684;10.806;2023-03-17T10:08:45;92799.44;;;18.07;28.14
16738;BME280;17906;47.684;10.806;2023-03-17T10:11:20;92794.66;;;17.85;28.36
16738;BME280;17906;47.684;10.806;2023-03-17T10:13:52;92791.81;;;17.76;26.98
16738;BME280;17906;47.684;10.806;2023-03-17T10:16:32;92787.78;;;18.15;26.66
16738;BME280;17906;47.684;10.806;2023-03-17T10:19:07;92796.59;;;17.84;25.77
16738;BME280;17906;47.684;10.806;2023-03-17T10:21:42;92799.19;;;17.48;26.77
16738;BME280;17906;47.684;10.806;2023-03-17T10:24:12;92809.28;;;17.34;27.15
16738;BME280;17906;47.684;10.806;2023-03-17T10:26:41;92794.84;;;16.96;31.29
16738;BME280;17906;47.684;10.806;2023-03-17T10:29:12;92797.53;;;16.44;33.64
16738;BME280;17906;47.684;10.806;2023-03-17T10:31:39;92789.66;;;16.19;33.47
16738;BME280;17906;47.684;10.806;2023-03-17T10:34:13;92791.22;;;15.58;34.60
16738;BME280;17906;47.684;10.806;2023-03-17T10:36:42;92805.84;;;16.15;33.21
16738;BME280;17906;47.684;10.806;2023-03-17T10:39:12;92799.63;;;16.10;31.18
16738;BME280;17906;47.684;10.806;2023-03-17T10:41:43;92797.69;;;16.53;30.30
16738;BME280;17906;47.684;10.806;2023-03-17T10:44:21;92802.78;;;16.41;32.31
16738;BME280;17906;47.684;10.806;2023-03-17T10:46:54;92802.06;;;16.54;33.34
16738;BME280;17906;47.684;10.806;2023-03-17T10:49:23;92792.72;;;16.74;32.49
16738;BME280;17906;47.684;10.806;2023-03-17T10:51:52;92786.91;;;16.80;31.61
16738;BME280;17906;47.684;10.806;2023-03-17T10:54:22;92785.25;;;17.12;31.98
16738;BME280;17906;47.684;10.806;2023-03-17T10:56:57;92778.16;;;17.11;30.97
16738;BME280;17906;47.684;10.806;2023-03-17T10:59:27;92781.63;;;17.35;30.74
16738;BME280;17906;47.684;10.806;2023-03-17T11:01:57;92777.22;;;17.02;30.81
16738;BME280;17906;47.684;10.806;2023-03-17T11:04:29;92780.56;;;16.80;30.56
16738;BME280;17906;47.684;10.806;2023-03-17T11:06:59;92784.22;;;16.75;27.42
16738;BME280;17906;47.684;10.806;2023-03-17T11:09:26;92776.47;;;16.64;27.53
16738;BME280;17906;47.684;10.806;2023-03-17T11:12:02;92776.31;;;16.55;27.76
16738;BME280;17906;47.684;10.806;2023-03-17T11:14:29;92769.19;;;16.16;29.39
16738;BME280;17906;47.684;10.806;2023-03-17T11:16:57;92769.88;;;16.46;29.77
16738;BME280;17906;47.684;10.806;2023-03-17T11:19:33;92764.03;;;16.52;31.17
16738;BME280;17906;47.684;10.806;2023-03-17T11:22:09;92758.56;;;16.52;28.47
16738;BME280;17906;47.684;10.806;2023-03-17T11:24:44;92753.41;;;17.02;29.70
16738;BME280;17906;47.684;10.806;2023-03-17T11:27:19;92762.00;;;16.96;29.59
16738;BME280;17906;47.684;10.806;2023-03-17T11:30:07;92750.22;;;16.95;29.14
16738;BME280;17906;47.684;10.806;2023-03-17T11:32:43;92744.72;;;16.81;29.48
16738;BME280;17906;47.684;10.806;2023-03-17T11:35:27;92737.78;;;16.70;28.71
16738;BME280;17906;47.684;10.806;2023-03-17T11:38:08;92742.84;;;16.77;30.99
16738;BME280;17906;47.684;10.806;2023-03-17T11:40:40;92735.91;;;16.66;30.35
16738;BME280;17906;47.684;10.806;2023-03-17T11:43:25;92734.75;;;17.04;29.60
16738;BME280;17906;47.684;10.806;2023-03-17T11:46:00;92735.84;;;16.71;30.12
16738;BME280;17906;47.684;10.806;2023-03-17T11:48:38;92735.41;;;16.64;30.12
16738;BME280;17906;47.684;10.806;2023-03-17T11:51:16;92726.91;;;16.65;30.80
16738;BME280;17906;47.684;10.806;2023-03-17T11:54:02;92730.66;;;17.02;31.99
16738;BME280;17906;47.684;10.806;2023-03-17T11:56:37;92730.09;;;17.19;30.92
16738;BME280;17906;47.684;10.806;2023-03-17T11:59:11;92728.56;;;16.80;31.42
16738;BME280;17906;47.684;10.806;2023-03-17T12:01:48;92722.34;;;16.93;32.55
16738;BME280;17906;47.684;10.806;2023-03-17T12:04:24;92722.91;;;16.90;32.53
16738;BME280;17906;47.684;10.806;2023-03-17T12:06:59;92723.38;;;16.78;31.80
16738;BME280;17906;47.684;10.806;2023-03-17T12:09:34;92719.84;;;16.78;32.73
16738;BME280;17906;47.684;10.806;2023-03-17T12:12:05;92725.66;;;16.90;32.89
16738;BME280;17906;47.684;10.806;2023-03-17T12:14:36;92727.34;;;17.05;32.87
16738;BME280;17906;47.684;10.806;2023-03-17T12:17:08;92721.75;;;16.77;32.74
16738;BME280;17906;47.684;10.806;2023-03-17T12:19:40;92720.81;;;16.68;32.03
16738;BME280;17906;47.684;10.806;2023-03-17T12:22:15;92712.34;;;16.32;31.72
16738;BME280;17906;47.684;10.806;2023-03-17T12:24:47;92715.16;;;16.46;32.48
16738;BME280;17906;47.684;10.806;2023-03-17T12:27:20;92712.94;;;16.29;32.18
16738;BME280;17906;47.684;10.806;2023-03-17T12:29:52;92711.47;;;16.18;32.65
16738;BME280;17906;47.684;10.806;2023-03-17T12:32:24;92709.53;;;16.00;32.47
16738;BME280;17906;47.684;10.806;2023-03-17T12:34:54;92703.69;;;16.06;31.83
16738;BME280;17906;47.684;10.806;2023-03-17T12:37:25;92711.97;;;16.01;31.62
16738;BME280;17906;47.684;10.806;2023-03-17T12:39:56;92705.47;;;16.16;32.35
16738;BME280;17906;47.684;10.806;2023-03-17T12:42:34;92707.91;;;16.36;32.73
16738;BME280;17906;47.684;10.806;2023-03-17T12:48:18;92704.16;;;16.51;32.96
16738;BME280;17906;47.684;10.806;2023-03-17T12:51:14;92714.03;;;16.28;33.44
16738;BME280;17906;47.684;10.806;2023-03-17T12:53:51;92705.38;;;16.02;34.49
16738;BME280;17906;47.684;10.806;2023-03-17T12:56:21;92715.06;;;16.13;35.02
16738;BME280;17906;47.684;10.806;2023-03-17T12:58:50;92709.28;;;16.15;34.97
16738;BME280;17906;47.684;10.806;2023-03-17T13:01:24;92705.66;;;15.82;35.41